< Typhoon 196002 1960 Season Typhoon 196004 >
Typhoon 196003 (MARY)
General InformationTrack Information on Google Maps || Disaster Info.ResourceGoogle EarthGE AnimationAtom FeedGeoJSON
Detalied Best Track (Time Zone = UTC)
Year Month Day Hour Lat. Long. Pressure (hPa) Wind (kt) Class Image Chart
1960 6 2 00 17.0 116.0 1004 0 2 -- Chart
1960 6 2 06 17.0 116.5 1004 0 2 -- Chart
1960 6 2 12 16.8 116.9 1002 0 2 -- Chart
1960 6 2 18 16.5 117.2 1002 0 2 -- Chart
1960 6 3 00 16.0 116.5 1001 0 2 -- Chart
1960 6 3 06 15.5 116.0 999 0 2 -- Chart
1960 6 3 12 15.3 115.3 996 0 2 -- Chart
1960 6 3 18 15.0 114.5 996 0 2 -- Chart
1960 6 4 00 15.0 113.5 990 0 9 -- Chart
1960 6 4 06 15.5 113.0 990 0 9 -- Chart
1960 6 4 12 16.0 112.5 990 0 9 -- Chart
1960 6 4 18 16.5 112.0 985 0 9 -- Chart
1960 6 5 00 17.0 111.7 980 0 9 -- Chart
1960 6 5 06 16.9 111.8 980 0 9 -- Chart
1960 6 5 12 16.8 111.9 980 0 9 -- Chart
1960 6 5 18 16.9 112.1 980 0 9 -- Chart
1960 6 6 00 17.3 112.4 980 0 9 -- Chart
1960 6 6 06 17.7 112.7 980 0 9 -- Chart
1960 6 6 12 18.0 113.0 980 0 9 -- Chart
1960 6 6 18 18.5 113.5 980 0 9 -- Chart
1960 6 7 00 19.0 113.7 980 0 9 -- Chart
1960 6 7 06 19.3 113.6 980 0 9 -- Chart
1960 6 7 12 19.7 113.5 980 0 9 -- Chart
1960 6 7 18 20.4 113.5 980 0 9 -- Chart
1960 6 8 00 21.0 113.2 980 0 9 -- Chart
1960 6 8 06 21.3 113.2 985 0 9 -- Chart
1960 6 8 12 21.8 113.5 985 0 9 -- Chart
1960 6 8 18 22.2 113.6 985 0 9 -- Chart
1960 6 9 00 22.6 113.7 985 0 9 -- Chart
1960 6 9 06 23.8 115.1 986 0 9 -- Chart
1960 6 9 12 24.5 116.0 990 0 9 -- Chart
1960 6 9 18 25.6 117.8 992 0 9 -- Chart
1960 6 10 00 26.5 119.0 992 0 9 -- Chart
1960 6 10 06 27.6 121.5 988 0 9 -- Chart
1960 6 10 12 29.0 124.0 988 0 9 -- Chart
1960 6 10 18 29.9 126.5 984 0 9 -- Chart
1960 6 11 00 30.0 128.6 982 0 9 -- Chart
1960 6 11 06 30.0 130.0 982 0 9 -- Chart
1960 6 11 12 29.5 133.0 986 0 9 -- Chart
1960 6 11 18 29.0 135.0 992 0 9 -- Chart
1960 6 12 00 28.6 136.5 996 0 6 -- Chart
1960 6 12 06 28.2 137.5 1000 0 6 -- Chart
1960 6 12 12 27.3 138.9 1002 0 6 -- Chart
1960 6 12 18 26.7 140.0 1004 0 6 -- Chart
1960 6 13 00 26.2 141.0 1008 0 6 -- Chart
1960 6 13 06 26.3 142.5 1008 0 6 -- Chart
1960 6 13 12 26.5 143.1 1008 0 6 -- Chart
1960 6 13 18 27.0 144.2 1008 0 6 -- Chart
1960 6 14 00 27.2 144.7 1010 0 6 -- Chart
1960 6 14 06 28.5 145.2 1010 0 6 -- Chart
1960 6 14 12 28.7 145.5 1010 0 6 -- Chart
1960 6 14 18 29.0 145.9 1010 0 6 -- Chart
1960 6 15 00 30.4 147.5 1012 0 6 -- Chart
1960 6 15 06 33.0 150.4 1012 0 6 -- Chart
1960 6 15 12 34.0 152.0 1012 0 6 -- Chart
1960 6 15 18 35.7 157.0 1010 0 6 -- Chart
1960 6 16 00 37.0 161.0 1010 0 6 -- Chart
1960 6 16 06 38.5 163.5 1008 0 6 -- Chart
1960 6 16 12 41.0 168.0 1002 0 6 -- Chart
1960 6 16 18 43.0 170.0 1002 0 6 -- Chart
1960 6 17 00 44.0 173.0 996 0 6 -- Chart
1960 6 17 06 44.0 175.0 998 0 6 -- Chart
1960 6 17 12 44.0 177.0 1000 0 6 -- Chart
1960 6 17 18 44.2 178.0 1000 0 6 -- Chart
1960 6 18 00 44.6 182.0 1002 0 6 -- Chart
Japan Meteorological Agency Best Track Data | Correction Date : 1991-07-16
< Typhoon 196002 1960 Season Typhoon 196004 >

Help